Huntsville, Texas
Current Conditions -  °F | °C
As of 9:53 PM on Saturday 25 Oct 2014 (Local Time) from KUTS Reporting Station
Clear Clear  
Wind Chill: 71°   Ceiling: Unl
Heat Index: 71°   Visibility: 10mi
Dew Point: 61°   Wind: 3mph
Humidity: 70%   Direction: 180°S
Pressure: 30.1"   Gusts: NA
Location:  30.72°N, 95.55°W
Report Text: KUTS 260253Z AUTO 18003KT 10SM CLR 22/16 A3010 RMK AO2 SLP189 T02170161 51005
Loading
Personal Weather Stations






























Interactive Weather Map
Tropical Storm Tracking
New forecast layout! Learn more

10-Day Weather Forecast

Advertisements
Track Severe Weather on mobile